createdAt,value
2019-01-26T00:00:34.691Z,99901.44
2019-01-26T00:05:38.116Z,99891.20
2019-01-26T00:10:41.555Z,99890.83
2019-01-26T00:15:45.032Z,99868.92
2019-01-26T00:20:48.587Z,99882.64
2019-01-26T00:25:52.076Z,99892.98
2019-01-26T00:30:55.569Z,99890.08
2019-01-26T00:35:59.209Z,99872.07
2019-01-26T00:41:02.732Z,99872.55
2019-01-26T00:46:06.129Z,99877.70
2019-01-26T00:51:09.540Z,99877.27
2019-01-26T00:56:13.004Z,99873.84
2019-01-26T01:01:16.436Z,99878.16
2019-01-26T01:06:19.865Z,99878.56
2019-01-26T01:11:23.289Z,99875.17
2019-01-26T01:16:26.707Z,99870.11
2019-01-26T01:21:30.125Z,99854.67
2019-01-26T01:26:33.588Z,99859.44
2019-01-26T01:31:37.080Z,99854.33
2019-01-26T01:36:40.500Z,99850.03
2019-01-26T01:41:43.998Z,99841.45
2019-01-26T01:46:47.482Z,99838.09
2019-01-26T01:51:50.902Z,99841.95
2019-01-26T01:56:54.359Z,99832.09
2019-01-26T02:01:57.778Z,99834.27
2019-01-26T02:07:01.258Z,99836.88
2019-01-26T02:12:04.739Z,99829.14
2019-01-26T02:17:08.220Z,99823.17
2019-01-26T02:22:11.727Z,99824.05
2019-01-26T02:27:15.167Z,99816.36
2019-01-26T02:32:18.585Z,99817.64
2019-01-26T02:37:22.063Z,99824.53
2019-01-26T02:42:25.490Z,99815.94
2019-01-26T02:47:28.919Z,99820.28
2019-01-26T02:52:32.356Z,99822.02
2019-01-26T02:57:35.780Z,99820.30
2019-01-26T03:02:39.193Z,99810.45
2019-01-26T03:07:42.775Z,99807.45
2019-01-26T03:12:46.484Z,99801.45
2019-01-26T03:17:49.997Z,99790.70
2019-01-26T03:22:53.416Z,99783.00
2019-01-26T03:27:56.854Z,99780.00
2019-01-26T03:33:00.277Z,99789.46
2019-01-26T03:38:03.722Z,99783.45
2019-01-26T03:43:07.320Z,99780.84
2019-01-26T03:48:10.807Z,99781.70
2019-01-26T03:53:14.193Z,99762.80
2019-01-26T03:58:17.625Z,99755.05
2019-01-26T04:03:21.359Z,99762.34
2019-01-26T04:08:24.782Z,99753.31
2019-01-26T04:13:28.248Z,99749.88
2019-01-26T04:18:31.658Z,99748.15
2019-01-26T04:23:35.075Z,99756.77
2019-01-26T04:28:38.511Z,99748.17
2019-01-26T04:33:42.024Z,99747.31
2019-01-26T04:38:45.438Z,99743.86
2019-01-26T04:43:48.868Z,99735.67
2019-01-26T04:48:52.339Z,99735.24
2019-01-26T04:53:55.830Z,99735.24
2019-01-26T04:58:59.247Z,99737.80
2019-01-26T05:04:02.796Z,99730.05
2019-01-26T05:09:07.942Z,99721.42
2019-01-26T05:14:11.362Z,99719.71
2019-01-26T05:19:14.778Z,99721.83
2019-01-26T05:24:18.192Z,99716.69
2019-01-26T05:29:21.622Z,99696.42
2019-01-26T05:34:25.045Z,99702.88
2019-01-26T05:39:28.489Z,99693.83
2019-01-26T05:44:31.984Z,99700.70
2019-01-26T05:49:35.469Z,99698.09
2019-01-26T05:54:38.902Z,99692.90
2019-01-26T05:59:42.403Z,99695.02
2019-01-26T06:04:47.552Z,99685.96
2019-01-26T06:09:50.981Z,99689.84
2019-01-26T06:14:54.418Z,99674.72
2019-01-26T06:19:57.951Z,99676.89
2019-01-26T06:25:01.487Z,99676.83
2019-01-26T06:30:13.935Z,99671.19
2019-01-26T06:35:17.536Z,99671.65
2019-01-26T06:40:21.592Z,99665.98
2019-01-26T06:45:25.183Z,99666.36
2019-01-26T06:50:29.211Z,99662.88
2019-01-26T06:55:32.640Z,99659.42
2019-01-26T07:00:36.134Z,99653.80
2019-01-26T07:05:44.309Z,99651.17
2019-01-26T07:10:47.819Z,99649.05
2019-01-26T07:15:52.070Z,99652.88
2019-01-26T07:20:55.558Z,99659.34
2019-01-26T07:25:59.108Z,99663.64
2019-01-26T07:31:02.565Z,99663.62
2019-01-26T07:36:06.010Z,99670.92
2019-01-26T07:41:09.479Z,99668.75
2019-01-26T07:46:13.019Z,99667.42
2019-01-26T07:51:16.458Z,99660.94
2019-01-26T07:56:19.909Z,99666.50
2019-01-26T08:01:23.370Z,99668.28
2019-01-26T08:06:26.768Z,99660.52
2019-01-26T08:11:30.262Z,99672.18
2019-01-26T08:16:33.768Z,99654.42
2019-01-26T08:21:37.444Z,99664.34
2019-01-26T08:26:40.890Z,99671.19
2019-01-26T08:31:44.314Z,99674.65
2019-01-26T08:36:47.759Z,99671.23
2019-01-26T08:41:51.221Z,99670.77
2019-01-26T08:46:54.676Z,99676.30
2019-01-26T08:51:58.088Z,99673.72
2019-01-26T08:57:01.504Z,99672.82
2019-01-26T09:02:12.782Z,99671.62
2019-01-26T09:07:16.206Z,99676.30
2019-01-26T09:12:19.651Z,99682.34
2019-01-26T09:17:23.091Z,99679.32
2019-01-26T09:22:26.529Z,99682.73
2019-01-26T09:27:29.959Z,99686.20
2019-01-26T09:32:33.382Z,99683.59
2019-01-26T09:37:36.883Z,99683.59
2019-01-26T09:42:40.310Z,99687.84
2019-01-26T09:47:43.812Z,99687.00
2019-01-26T09:52:47.260Z,99695.19
2019-01-26T09:57:50.770Z,99695.17
2019-01-26T10:02:54.332Z,99686.99
2019-01-26T10:07:57.837Z,99696.88
2019-01-26T10:13:01.277Z,99688.66
2019-01-26T10:18:04.966Z,99688.23
2019-01-26T10:23:08.450Z,99688.59
2019-01-26T10:28:11.881Z,99682.55
2019-01-26T10:33:15.438Z,99676.86
2019-01-26T10:38:19.048Z,99675.52
2019-01-26T10:43:36.166Z,99677.76
2019-01-26T10:48:39.596Z,99672.14
2019-01-26T10:53:43.010Z,99668.19
2019-01-26T10:58:46.450Z,99673.42
2019-01-26T11:03:49.901Z,99663.59
2019-01-26T11:08:53.426Z,99662.20
2019-01-26T11:13:56.863Z,99651.94
2019-01-26T11:19:00.355Z,99651.94
2019-01-26T11:24:04.330Z,99652.36
2019-01-26T11:29:07.783Z,99648.53
2019-01-26T11:34:11.328Z,99651.43
2019-01-26T11:39:14.764Z,99646.17
2019-01-26T11:44:18.207Z,99632.34
2019-01-26T11:49:21.959Z,99632.40
2019-01-26T11:54:25.435Z,99633.69
2019-01-26T11:59:28.935Z,99632.00
2019-01-26T12:04:34.029Z,99619.47
2019-01-26T12:09:37.451Z,99620.28
2019-01-26T12:14:40.872Z,99618.98
2019-01-26T12:19:44.294Z,99609.12
2019-01-26T12:24:47.745Z,99606.95
2019-01-26T12:29:51.176Z,99600.89
2019-01-26T12:34:54.596Z,99594.45
2019-01-26T12:39:58.053Z,99603.45
2019-01-26T12:45:01.485Z,99599.55
2019-01-26T12:50:07.977Z,99585.80
2019-01-26T12:55:16.426Z,99597.41
2019-01-26T13:00:22.932Z,99588.44
2019-01-26T13:05:26.331Z,99585.83
2019-01-26T13:10:36.214Z,99588.46
2019-01-26T13:15:39.692Z,99584.13
2019-01-26T13:20:43.106Z,99579.36
2019-01-26T13:25:46.613Z,99569.91
2019-01-26T13:30:50.104Z,99563.83
2019-01-26T13:35:53.666Z,99568.61
2019-01-26T13:40:57.078Z,99544.47
2019-01-26T13:46:00.718Z,99534.09
2019-01-26T13:51:04.280Z,99539.13
2019-01-26T13:56:07.759Z,99529.61
2019-01-26T14:01:11.177Z,99528.67
2019-01-26T14:06:14.614Z,99527.73
2019-01-26T14:11:18.039Z,99531.16
2019-01-26T14:16:21.473Z,99527.81
2019-01-26T14:21:25.089Z,99518.27
2019-01-26T14:26:28.565Z,99514.81
2019-01-26T14:31:31.989Z,99501.88
2019-01-26T14:36:35.417Z,99514.93
2019-01-26T14:41:38.840Z,99509.80
2019-01-26T14:46:42.272Z,99499.95
2019-01-26T14:51:45.706Z,99490.09
2019-01-26T14:56:49.136Z,99482.24
2019-01-26T15:01:52.567Z,99478.45
2019-01-26T15:06:55.995Z,99466.77
2019-01-26T15:11:59.413Z,99475.38
2019-01-26T15:17:02.989Z,99465.09
2019-01-26T15:22:06.575Z,99465.97
2019-01-26T15:27:10.117Z,99447.00
2019-01-26T15:32:13.720Z,99447.85
2019-01-26T15:37:17.222Z,99438.00
2019-01-26T15:42:20.718Z,99430.70
2019-01-26T15:47:24.158Z,99425.53
2019-01-26T15:52:27.577Z,99420.44
2019-01-26T15:57:31.067Z,99417.52
2019-01-26T16:02:34.675Z,99406.62
2019-01-26T16:07:38.122Z,99403.20
2019-01-26T16:12:41.545Z,99398.09
2019-01-26T16:17:45.001Z,99383.48
2019-01-26T16:22:48.640Z,99387.80
2019-01-26T16:27:52.136Z,99384.72
2019-01-26T16:32:55.575Z,99372.16
2019-01-26T16:37:59.021Z,99369.57
2019-01-26T16:43:24.194Z,99360.16
2019-01-26T16:48:27.620Z,99358.05
2019-01-26T16:53:31.137Z,99349.44
2019-01-26T16:58:35.437Z,99332.73
2019-01-26T17:03:38.916Z,99331.83
2019-01-26T17:08:42.347Z,99324.59
2019-01-26T17:13:45.785Z,99320.28
2019-01-26T17:18:49.200Z,99301.67
2019-01-26T17:23:52.631Z,99297.34
2019-01-26T17:28:56.072Z,99296.94
2019-01-26T17:33:59.559Z,99284.09
2019-01-26T17:39:05.894Z,99271.13
2019-01-26T17:44:09.316Z,99264.67
2019-01-26T17:49:12.750Z,99262.11
2019-01-26T17:54:16.205Z,99245.30
2019-01-26T17:59:19.649Z,99236.22
2019-01-26T18:04:23.191Z,99229.84
2019-01-26T18:09:26.768Z,99216.51
2019-01-26T18:14:30.326Z,99208.28
2019-01-26T18:19:33.814Z,99195.86
2019-01-26T18:24:37.255Z,99193.23
2019-01-26T18:29:40.687Z,99180.41
2019-01-26T18:34:44.216Z,99180.30
2019-01-26T18:39:47.771Z,99164.69
2019-01-26T18:44:51.122Z,99158.32
2019-01-26T18:49:54.561Z,99156.63
2019-01-26T18:54:57.992Z,99151.45
2019-01-26T19:00:01.535Z,99141.52
2019-01-26T19:05:08.128Z,99138.08
2019-01-26T19:10:13.193Z,99117.42
2019-01-26T19:15:22.539Z,99109.70
2019-01-26T19:20:26.048Z,99109.27
2019-01-26T19:25:29.552Z,99098.03
2019-01-26T19:30:33.121Z,99091.60
2019-01-26T19:35:36.638Z,99086.03
2019-01-26T19:40:40.099Z,99081.70
2019-01-26T19:45:43.538Z,99070.44
2019-01-26T19:50:46.970Z,99067.84
2019-01-26T19:55:50.415Z,99056.25
2019-01-26T20:00:53.854Z,99054.59
2019-01-26T20:05:57.265Z,99038.19
2019-01-26T20:11:00.693Z,99032.69
2019-01-26T20:16:04.192Z,99030.06
2019-01-26T20:21:07.762Z,99022.38
2019-01-26T20:26:11.259Z,99009.64
2019-01-26T20:31:14.921Z,99009.13
2019-01-26T20:36:18.354Z,98994.42
2019-01-26T20:41:21.786Z,98982.84
2019-01-26T20:46:25.337Z,98965.70
2019-01-26T20:51:28.795Z,98959.23
2019-01-26T20:56:32.212Z,98952.25
2019-01-26T21:01:35.718Z,98938.08
2019-01-26T21:06:39.149Z,98920.87
2019-01-26T21:11:42.612Z,98907.54
2019-01-26T21:16:46.037Z,98895.91
2019-01-26T21:21:49.466Z,98882.63
2019-01-26T21:26:52.966Z,98867.13
2019-01-26T21:31:56.396Z,98866.64
2019-01-26T21:36:59.820Z,98861.02
2019-01-26T21:42:03.244Z,98850.73
2019-01-26T21:47:06.961Z,98839.98
2019-01-26T21:52:10.448Z,98834.02
2019-01-26T21:57:13.855Z,98820.77
2019-01-26T22:02:17.269Z,98824.52
2019-01-26T22:07:20.697Z,98817.46
2019-01-26T22:12:25.166Z,98790.77
2019-01-26T22:17:28.791Z,98799.95
2019-01-26T22:22:32.281Z,98785.83
2019-01-26T22:27:35.781Z,98782.59
2019-01-26T22:32:39.213Z,98776.13
2019-01-26T22:37:42.680Z,98766.37
2019-01-26T22:42:46.108Z,98759.45
2019-01-26T22:47:49.580Z,98746.90
2019-01-26T22:52:53.234Z,98722.66
2019-01-26T22:57:56.739Z,98727.21
2019-01-26T23:03:00.255Z,98709.70
2019-01-26T23:08:04.528Z,98693.05
2019-01-26T23:13:13.777Z,98687.52
2019-01-26T23:18:25.958Z,98669.58
2019-01-26T23:23:38.407Z,98659.64
2019-01-26T23:28:50.665Z,98652.09
2019-01-26T23:33:54.240Z,98643.40
2019-01-26T23:39:02.289Z,98628.30
2019-01-26T23:44:03.086Z,98620.91
2019-01-26T23:49:06.522Z,98603.23
2019-01-26T23:54:09.952Z,98590.27
2019-01-26T23:59:13.430Z,98585.81
